TAF Text Data
IDs:
Format:
Raw Decoded Include METAR

Data at: 0934 UTC 20 Sep 2019

METAR for:KTOB (Dodge Center Arpt, MN, US)
Text:KTOB 200915Z AUTO 00000KT 4SM BR SCT060 17/16 A3007 RMK AO2
Temperature: 17.0°C ( 63°F)
Dewpoint: 16.0°C ( 61°F) [RH = 94%]
Pressure (altimeter):30.07 inches Hg (1018.4 mb)
Winds:calm
Visibility: 4 sm ( 6 km)
Ceiling:at least 12,000 feet AGL
Clouds: scattered clouds at 6000 feet AGL
Weather:BR (mist)
QC Flag:automated observation with no human augmentation

TAF for:KTOB (Dodge Center Arpt, MN, US)
Text:No data found